createdAt,value
2022-10-18T00:00:17.336Z,101269.69
2022-10-18T00:03:20.329Z,101268.16
2022-10-18T00:06:22.506Z,101271.00
2022-10-18T00:09:25.094Z,101270.34
2022-10-18T00:12:27.175Z,101264.31
2022-10-18T00:15:29.138Z,101265.44
2022-10-18T00:18:31.527Z,101255.19
2022-10-18T00:21:33.645Z,101259.66
2022-10-18T00:24:35.740Z,101257.88
2022-10-18T00:27:37.844Z,101259.28
2022-10-18T00:30:39.929Z,101255.62
2022-10-18T00:33:43.261Z,101262.91
2022-10-18T00:36:45.570Z,101260.28
2022-10-18T00:39:47.563Z,101254.16
2022-10-18T00:42:49.570Z,101255.88
2022-10-18T00:45:51.630Z,101256.81
2022-10-18T00:48:56.598Z,101246.56
2022-10-18T00:52:09.254Z,101243.97
2022-10-18T00:55:11.735Z,101231.69
2022-10-18T00:58:16.654Z,101235.44
2022-10-18T01:01:18.708Z,101224.13
2022-10-18T01:04:21.746Z,101226.03
2022-10-18T01:07:26.834Z,101221.00
2022-10-18T01:10:56.785Z,101225.44
2022-10-18T01:14:36.122Z,101230.97
2022-10-18T01:18:14.123Z,101219.91
2022-10-18T01:21:24.859Z,101219.06
2022-10-18T01:24:45.530Z,101213.56
2022-10-18T01:27:59.260Z,101212.72
2022-10-18T01:31:10.187Z,101208.25
2022-10-18T01:34:16.945Z,101202.16
2022-10-18T01:37:21.544Z,101200.94
2022-10-18T01:40:25.493Z,101196.59
2022-10-18T01:43:29.873Z,101198.41
2022-10-18T01:46:33.483Z,101193.13
2022-10-18T01:49:35.735Z,101190.78
2022-10-18T01:52:51.553Z,101184.75
2022-10-18T01:56:18.247Z,101183.16
2022-10-18T01:59:38.933Z,101186.84
2022-10-18T02:02:48.616Z,101171.16
2022-10-18T02:05:59.302Z,101176.66
2022-10-18T02:09:11.193Z,101176.03
2022-10-18T02:12:15.517Z,101164.50
2022-10-18T02:15:22.526Z,101166.09
2022-10-18T02:18:33.124Z,101158.31
2022-10-18T02:21:36.099Z,101162.75
2022-10-18T02:24:43.039Z,101160.97
2022-10-18T02:27:45.157Z,101165.47
2022-10-18T02:31:05.714Z,101174.28
2022-10-18T02:34:16.894Z,101170.69
2022-10-18T02:37:20.677Z,101177.81
2022-10-18T02:40:25.976Z,101183.88
2022-10-18T02:43:27.986Z,101176.16
2022-10-18T02:46:30.030Z,101175.22
2022-10-18T02:49:32.372Z,101181.44
2022-10-18T02:52:34.431Z,101176.19
2022-10-18T02:55:36.388Z,101176.19
2022-10-18T02:58:38.423Z,101179.75
2022-10-18T03:01:40.813Z,101169.00
2022-10-18T03:04:42.925Z,101164.62
2022-10-18T03:07:48.504Z,101167.19
2022-10-18T03:10:50.689Z,101166.44
2022-10-18T03:13:52.695Z,101166.75
2022-10-18T03:16:54.679Z,101166.88
2022-10-18T03:19:56.682Z,101168.63
2022-10-18T03:22:58.602Z,101164.28
2022-10-18T03:26:00.713Z,101164.38
2022-10-18T03:29:02.959Z,101163.66
2022-10-18T03:32:05.301Z,101166.41
2022-10-18T03:35:09.278Z,101170.94
2022-10-18T03:38:11.418Z,101172.00
2022-10-18T03:41:13.573Z,101170.34
2022-10-18T03:44:15.489Z,101166.97
2022-10-18T03:47:17.559Z,101167.03
2022-10-18T03:50:20.062Z,101170.69
2022-10-18T03:53:22.095Z,101169.88
2022-10-18T03:56:24.055Z,101176.19
2022-10-18T03:59:26.124Z,101163.00
2022-10-18T04:02:28.073Z,101159.44
2022-10-18T04:05:31.399Z,101162.00
2022-10-18T04:08:33.458Z,101162.81
2022-10-18T04:11:35.436Z,101169.22
2022-10-18T04:14:37.429Z,101162.41
2022-10-18T04:17:39.473Z,101162.34
2022-10-18T04:20:41.609Z,101157.94
2022-10-18T04:23:43.550Z,101165.87
2022-10-18T04:26:45.878Z,101154.50
2022-10-18T04:29:47.792Z,101144.91
2022-10-18T04:32:49.836Z,101153.75
2022-10-18T04:35:53.489Z,101158.28
2022-10-18T04:38:55.543Z,101160.09
2022-10-18T04:41:57.570Z,101147.84
2022-10-18T04:44:59.516Z,101157.53
2022-10-18T04:48:01.639Z,101152.25
2022-10-18T04:51:03.820Z,101150.50
2022-10-18T04:54:05.881Z,101152.28
2022-10-18T04:57:07.861Z,101155.00
2022-10-18T05:00:10.220Z,101155.03
2022-10-18T05:03:14.001Z,101149.03
2022-10-18T05:06:16.026Z,101157.00
2022-10-18T05:09:18.024Z,101151.72
2022-10-18T05:12:20.152Z,101149.97
2022-10-18T05:15:22.201Z,101153.50
2022-10-18T05:18:24.183Z,101147.31
2022-10-18T05:21:26.198Z,101149.19
2022-10-18T05:24:28.272Z,101151.81
2022-10-18T05:27:30.357Z,101143.94
2022-10-18T05:30:32.407Z,101149.97
2022-10-18T05:33:34.471Z,101153.44
2022-10-18T05:36:36.546Z,101161.22
2022-10-18T05:39:39.036Z,101160.25
2022-10-18T05:42:40.992Z,101155.03
2022-10-18T05:45:48.112Z,101158.50
2022-10-18T05:48:51.459Z,101158.50
2022-10-18T05:51:53.707Z,101167.12
2022-10-18T05:54:55.720Z,101173.34
2022-10-18T05:57:57.652Z,101164.41
2022-10-18T06:01:04.194Z,101165.03
2022-10-18T06:04:06.461Z,101160.19
2022-10-18T06:07:10.141Z,101164.19
2022-10-18T06:10:17.688Z,101160.47
2022-10-18T06:13:19.633Z,101167.09
2022-10-18T06:16:22.882Z,101167.62
2022-10-18T06:19:24.910Z,101167.81
2022-10-18T06:22:26.979Z,101169.03
2022-10-18T06:25:28.964Z,101168.44
2022-10-18T06:28:31.161Z,101171.56
2022-10-18T06:31:33.199Z,101162.44
2022-10-18T06:34:35.344Z,101160.25
2022-10-18T06:37:38.321Z,101163.38
2022-10-18T06:40:42.172Z,101161.16
2022-10-18T06:43:53.117Z,101170.19
2022-10-18T06:46:55.106Z,101177.41
2022-10-18T06:49:57.051Z,101173.78
2022-10-18T06:52:59.007Z,101166.84
2022-10-18T06:56:02.849Z,101167.44
2022-10-18T06:59:05.386Z,101157.97
2022-10-18T07:02:07.598Z,101160.41
2022-10-18T07:05:11.255Z,101149.75
2022-10-18T07:08:13.203Z,101154.25
2022-10-18T07:11:25.215Z,101153.94
2022-10-18T07:14:29.193Z,101144.97
2022-10-18T07:17:31.546Z,101146.13
2022-10-18T07:20:34.047Z,101146.84
2022-10-18T07:23:38.281Z,101147.50
2022-10-18T07:26:40.208Z,101140.41
2022-10-18T07:29:42.246Z,101141.75
2022-10-18T07:32:44.215Z,101146.66
2022-10-18T07:35:46.344Z,101137.91
2022-10-18T07:38:49.420Z,101136.81
2022-10-18T07:41:51.517Z,101141.03
2022-10-18T07:44:53.458Z,101136.22
2022-10-18T07:47:56.673Z,101138.63
2022-10-18T07:51:00.988Z,101130.84
2022-10-18T07:54:03.170Z,101125.53
2022-10-18T07:57:05.494Z,101118.28
2022-10-18T08:00:09.158Z,101117.66
2022-10-18T08:03:11.357Z,101118.47
2022-10-18T08:06:16.511Z,101112.75
2022-10-18T08:09:18.508Z,101115.09
2022-10-18T08:12:20.447Z,101117.53
2022-10-18T08:15:25.057Z,101112.19
2022-10-18T08:18:26.990Z,101109.53
2022-10-18T08:21:28.951Z,101110.03
2022-10-18T08:24:31.041Z,101111.56
2022-10-18T08:27:33.188Z,101106.41
2022-10-18T08:30:36.749Z,101111.97
2022-10-18T08:33:39.933Z,101109.91
2022-10-18T08:36:41.825Z,101106.41
2022-10-18T08:39:43.798Z,101106.53
2022-10-18T08:42:52.766Z,101105.97
2022-10-18T08:45:55.226Z,101092.88
2022-10-18T08:48:57.410Z,101100.38
2022-10-18T08:51:59.494Z,101096.00
2022-10-18T08:55:10.606Z,101098.53
2022-10-18T08:58:17.906Z,101106.38
2022-10-18T09:01:26.081Z,101096.22
2022-10-18T09:04:40.242Z,101094.94
2022-10-18T09:07:47.980Z,101098.97
2022-10-18T09:10:49.926Z,101091.81
2022-10-18T09:14:37.597Z,101095.97
2022-10-18T09:17:57.575Z,101096.59
2022-10-18T09:21:06.577Z,101084.22
2022-10-18T09:24:25.653Z,101077.22
2022-10-18T09:27:59.889Z,101083.03
2022-10-18T09:31:05.048Z,101074.84
2022-10-18T09:34:24.898Z,101076.06
2022-10-18T09:37:30.843Z,101069.69
2022-10-18T09:40:37.803Z,101067.34
2022-10-18T09:43:51.041Z,101067.16
2022-10-18T09:47:00.622Z,101059.38
2022-10-18T09:50:13.819Z,101069.25
2022-10-18T09:53:37.069Z,101058.75
2022-10-18T09:56:50.221Z,101044.50
2022-10-18T09:59:52.585Z,101048.88
2022-10-18T10:02:54.745Z,101042.34
2022-10-18T10:06:25.342Z,101035.50
2022-10-18T10:09:37.185Z,101047.69
2022-10-18T10:12:41.088Z,101033.13
2022-10-18T10:15:52.168Z,101025.81
2022-10-18T10:18:54.666Z,101024.56
2022-10-18T10:22:05.317Z,101016.41
2022-10-18T10:25:19.357Z,101012.06
2022-10-18T10:28:30.564Z,101009.16
2022-10-18T10:31:34.430Z,101007.72
2022-10-18T10:34:37.308Z,101011.59
2022-10-18T10:37:40.814Z,101007.06
2022-10-18T10:40:50.468Z,101007.09
2022-10-18T10:43:52.789Z,100994.72
2022-10-18T10:46:55.444Z,100991.50
2022-10-18T10:49:57.714Z,100990.31
2022-10-18T10:52:59.957Z,100979.75
2022-10-18T10:56:03.249Z,100973.88
2022-10-18T10:59:08.611Z,100962.13
2022-10-18T11:02:20.709Z,100957.62
2022-10-18T11:05:27.179Z,100964.16
2022-10-18T11:08:38.948Z,100948.09
2022-10-18T11:11:50.020Z,100945.56
2022-10-18T11:15:14.275Z,100945.66
2022-10-18T11:18:30.291Z,100939.59
2022-10-18T11:21:33.193Z,100929.91
2022-10-18T11:24:36.665Z,100924.34
2022-10-18T11:27:49.378Z,100919.22
2022-10-18T11:31:29.725Z,100920.12
2022-10-18T11:35:20.227Z,100919.94
2022-10-18T11:38:53.492Z,100911.13
2022-10-18T11:42:39.162Z,100910.03
2022-10-18T11:46:03.509Z,100916.66
2022-10-18T11:49:43.264Z,100909.03
2022-10-18T11:53:03.786Z,100907.75
2022-10-18T11:56:27.189Z,100906.62
2022-10-18T11:59:46.038Z,100901.47
2022-10-18T12:02:56.320Z,100902.31
2022-10-18T12:06:03.805Z,100897.25
2022-10-18T12:09:32.728Z,100890.63
2022-10-18T12:12:42.074Z,100887.22
2022-10-18T12:15:45.279Z,100879.16
2022-10-18T12:18:57.889Z,100873.31
2022-10-18T12:22:21.432Z,100863.66
2022-10-18T12:25:23.804Z,100866.41
2022-10-18T12:28:28.919Z,100854.22
2022-10-18T12:31:45.781Z,100844.06
2022-10-18T12:34:55.133Z,100842.59
2022-10-18T12:38:23.971Z,100836.63
2022-10-18T12:41:30.376Z,100827.47
2022-10-18T12:44:34.712Z,100830.16
2022-10-18T12:47:36.896Z,100827.25
2022-10-18T12:50:42.275Z,100830.31
2022-10-18T12:53:54.837Z,100821.50
2022-10-18T12:56:58.074Z,100819.44
2022-10-18T13:00:00.199Z,100819.72
2022-10-18T13:03:16.640Z,100818.28
2022-10-18T13:06:18.775Z,100807.06
2022-10-18T13:09:21.830Z,100801.72
2022-10-18T13:12:23.741Z,100794.16
2022-10-18T13:15:52.976Z,100796.09
2022-10-18T13:18:57.779Z,100801.91
2022-10-18T13:22:41.471Z,100796.13
2022-10-18T13:26:05.425Z,100787.72
2022-10-18T13:29:33.946Z,100787.16
2022-10-18T13:32:50.761Z,100793.50
2022-10-18T13:36:05.492Z,100790.09
2022-10-18T13:39:20.922Z,100789.09
2022-10-18T13:42:32.364Z,100785.44
2022-10-18T13:45:35.319Z,100785.31
2022-10-18T13:48:37.366Z,100778.63
2022-10-18T13:52:07.072Z,100780.53
2022-10-18T13:55:26.295Z,100779.63
2022-10-18T13:59:05.861Z,100779.47
2022-10-18T14:02:51.702Z,100771.41
2022-10-18T14:06:01.804Z,100774.38
2022-10-18T14:09:26.307Z,100765.50
2022-10-18T14:12:44.382Z,100767.03
2022-10-18T14:15:51.763Z,100754.75
2022-10-18T14:19:01.601Z,100757.56
2022-10-18T14:22:13.098Z,100755.78
2022-10-18T14:25:37.170Z,100747.47
2022-10-18T14:28:58.472Z,100744.84
2022-10-18T14:32:01.176Z,100739.97
2022-10-18T14:35:31.180Z,100735.13
2022-10-18T14:38:25.650Z,100731.31
2022-10-18T14:41:38.581Z,100735.81
2022-10-18T14:44:40.659Z,100729.06
2022-10-18T14:47:45.799Z,100722.28
2022-10-18T14:50:59.307Z,100715.97
2022-10-18T14:54:01.837Z,100717.03
2022-10-18T14:57:05.973Z,100724.87
2022-10-18T15:00:09.773Z,100716.72
2022-10-18T15:03:15.901Z,100714.06
2022-10-18T15:06:19.742Z,100711.59
2022-10-18T15:09:24.184Z,100715.53
2022-10-18T15:12:33.908Z,100715.03
2022-10-18T15:15:48.026Z,100713.50
2022-10-18T15:19:03.163Z,100713.75
2022-10-18T15:25:32.930Z,100719.97
2022-10-18T15:28:40.125Z,100712.19
2022-10-18T15:31:44.501Z,100715.97
2022-10-18T15:34:46.905Z,100711.81
2022-10-18T15:37:49.009Z,100710.91
2022-10-18T15:40:52.054Z,100709.66
2022-10-18T15:44:10.104Z,100713.31
2022-10-18T15:47:21.114Z,100698.88
2022-10-18T15:50:50.583Z,100707.87
2022-10-18T15:53:54.476Z,100707.59
2022-10-18T15:56:57.042Z,100704.25
2022-10-18T16:00:05.025Z,100701.72
2022-10-18T16:03:09.329Z,100697.69
2022-10-18T16:06:15.887Z,100700.16
2022-10-18T16:09:22.651Z,100696.34
2022-10-18T16:12:24.590Z,100704.78
2022-10-18T16:15:26.617Z,100707.63
2022-10-18T16:18:28.627Z,100716.78
2022-10-18T16:21:38.190Z,100713.91
2022-10-18T16:24:40.656Z,100724.84
2022-10-18T16:27:42.606Z,100725.22
2022-10-18T16:30:50.510Z,100722.09
2022-10-18T16:33:54.118Z,100726.53
2022-10-18T16:36:56.140Z,100721.28
2022-10-18T16:39:58.086Z,100730.91
2022-10-18T16:43:00.094Z,100719.06
2022-10-18T16:46:03.090Z,100732.63
2022-10-18T16:49:06.491Z,100735.03
2022-10-18T16:52:08.742Z,100739.59
2022-10-18T16:55:17.199Z,100739.19
2022-10-18T16:58:19.254Z,100745.63
2022-10-18T17:01:23.747Z,100748.13
2022-10-18T17:04:25.759Z,100746.09
2022-10-18T17:07:27.730Z,100747.88
2022-10-18T17:10:30.499Z,100746.91
2022-10-18T17:13:32.469Z,100748.19
2022-10-18T17:16:37.586Z,100744.06
2022-10-18T17:19:39.651Z,100747.72
2022-10-18T17:22:41.734Z,100751.06
2022-10-18T17:25:57.571Z,100753.53
2022-10-18T17:29:08.720Z,100760.16
2022-10-18T17:32:11.173Z,100755.87
2022-10-18T17:35:13.746Z,100760.25
2022-10-18T17:38:16.396Z,100757.16
2022-10-18T17:41:18.642Z,100762.63
2022-10-18T17:44:21.581Z,100759.63
2022-10-18T17:47:24.203Z,100758.03
2022-10-18T17:50:35.980Z,100750.16
2022-10-18T17:53:39.269Z,100760.47
2022-10-18T17:56:42.213Z,100760.59
2022-10-18T17:59:45.224Z,100764.06
2022-10-18T18:02:48.049Z,100765.53
2022-10-18T18:05:53.798Z,100761.94
2022-10-18T18:08:57.804Z,100762.75
2022-10-18T18:12:00.203Z,100761.97
2022-10-18T18:15:02.662Z,100766.22
2022-10-18T18:18:05.615Z,100752.47
2022-10-18T18:21:09.486Z,100749.03
2022-10-18T18:24:14.525Z,100745.84
2022-10-18T18:27:17.375Z,100734.94
2022-10-18T18:30:22.580Z,100742.97
2022-10-18T18:33:25.879Z,100734.41
2022-10-18T18:36:29.652Z,100729.56
2022-10-18T18:39:35.811Z,100723.88
2022-10-18T18:42:38.505Z,100724.41
2022-10-18T18:45:41.199Z,100721.22
2022-10-18T18:48:44.165Z,100729.97
2022-10-18T18:51:48.885Z,100730.25
2022-10-18T18:54:51.708Z,100730.56
2022-10-18T18:57:54.551Z,100730.94
2022-10-18T19:00:57.793Z,100723.72
2022-10-18T19:04:01.573Z,100729.44
2022-10-18T19:07:04.327Z,100725.22
2022-10-18T19:10:07.490Z,100730.25
2022-10-18T19:13:11.112Z,100730.62
2022-10-18T19:16:20.327Z,100727.44
2022-10-18T19:19:24.753Z,100733.47
2022-10-18T19:22:27.570Z,100731.91
2022-10-18T19:25:29.994Z,100729.69
2022-10-18T19:28:32.861Z,100720.31
2022-10-18T19:31:36.490Z,100718.59
2022-10-18T19:34:39.938Z,100723.06
2022-10-18T19:37:42.717Z,100727.59
2022-10-18T19:41:04.756Z,100721.63
2022-10-18T19:44:07.598Z,100712.53
2022-10-18T19:47:14.720Z,100715.66
2022-10-18T19:50:18.008Z,100715.25
2022-10-18T19:53:21.016Z,100707.47
2022-10-18T19:56:26.097Z,100709.31
2022-10-18T19:59:29.426Z,100717.47
2022-10-18T20:02:32.310Z,100719.34
2022-10-18T20:05:34.687Z,100723.19
2022-10-18T20:08:37.846Z,100732.16
2022-10-18T20:11:40.319Z,100740.66
2022-10-18T20:14:42.396Z,100736.16
2022-10-18T20:17:44.427Z,100736.47
2022-10-18T20:20:48.403Z,100725.59
2022-10-18T20:23:50.372Z,100730.91
2022-10-18T20:29:55.184Z,100726.41
2022-10-18T20:32:57.218Z,100725.63
2022-10-18T20:36:08.021Z,100733.50
2022-10-18T20:39:10.171Z,100735.63
2022-10-18T20:42:12.256Z,100744.69
2022-10-18T20:45:14.301Z,100727.72
2022-10-18T20:48:16.335Z,100724.53
2022-10-18T20:51:20.022Z,100731.63
2022-10-18T20:54:22.861Z,100722.25
2022-10-18T20:57:24.979Z,100719.00
2022-10-18T21:00:27.962Z,100723.09
2022-10-18T21:03:29.946Z,100712.06
2022-10-18T21:06:44.846Z,100706.19
2022-10-18T21:09:46.826Z,100704.78
2022-10-18T21:12:48.930Z,100703.25
2022-10-18T21:15:58.554Z,100712.81
2022-10-18T21:19:08.811Z,100708.81
2022-10-18T21:22:11.007Z,100706.84
2022-10-18T21:25:13.008Z,100704.94
2022-10-18T21:28:16.346Z,100704.19
2022-10-18T21:31:21.256Z,100706.06
2022-10-18T21:34:23.357Z,100703.59
2022-10-18T21:37:25.275Z,100701.19
2022-10-18T21:40:29.890Z,100700.34
2022-10-18T21:43:31.832Z,100699.13
2022-10-18T21:46:33.868Z,100696.47
2022-10-18T21:49:35.806Z,100703.56
2022-10-18T21:52:38.329Z,100710.53
2022-10-18T21:55:40.253Z,100711.22
2022-10-18T21:58:43.058Z,100705.78
2022-10-18T22:01:45.813Z,100708.22
2022-10-18T22:04:49.759Z,100694.72
2022-10-18T22:07:51.755Z,100701.50
2022-10-18T22:10:53.834Z,100693.72
2022-10-18T22:13:56.240Z,100692.94
2022-10-18T22:16:58.278Z,100689.59
2022-10-18T22:20:00.402Z,100690.63
2022-10-18T22:23:02.395Z,100693.34
2022-10-18T22:26:08.073Z,100685.66
2022-10-18T22:29:15.057Z,100682.94
2022-10-18T22:32:17.035Z,100678.66
2022-10-18T22:35:18.967Z,100672.69
2022-10-18T22:38:21.005Z,100670.81
2022-10-18T22:41:22.988Z,100671.91
2022-10-18T22:44:25.451Z,100678.19
2022-10-18T22:47:27.477Z,100671.28
2022-10-18T22:50:29.410Z,100662.59
2022-10-18T22:53:32.422Z,100669.62
2022-10-18T22:56:34.905Z,100664.19
2022-10-18T22:59:36.928Z,100661.81
2022-10-18T23:02:38.927Z,100663.66
2022-10-18T23:05:43.055Z,100663.13
2022-10-18T23:08:45.004Z,100662.44
2022-10-18T23:11:48.131Z,100672.94
2022-10-18T23:14:50.221Z,100660.47
2022-10-18T23:17:54.730Z,100661.56
2022-10-18T23:21:09.070Z,100662.44
2022-10-18T23:24:11.093Z,100658.00
2022-10-18T23:27:13.147Z,100668.28
2022-10-18T23:30:23.223Z,100662.50
2022-10-18T23:33:25.222Z,100668.34
2022-10-18T23:36:27.466Z,100665.59
2022-10-18T23:39:29.399Z,100658.47
2022-10-18T23:42:31.605Z,100665.59
2022-10-18T23:45:33.555Z,100659.41
2022-10-18T23:48:35.649Z,100670.69
2022-10-18T23:51:37.639Z,100663.81
2022-10-18T23:54:39.879Z,100666.59
2022-10-18T23:57:41.843Z,100670.97
